Time;durP1;ratioP1;P1;durP2;ratioP2;P2;SDS_P1;SDS_P2;PMS_P1;PMS_P2;Temp;Humidity;BMP_temperature;BMP_pressure;BME280_temperature;BME280_humidity;BME280_pressure;Samples;Min_cycle;Max_cycle;Signal;HPM_P1;HPM_P2
2024/03/31 00:01:38;;;;;;;50.10;29.83;;;;;;;;;;7341125;19;20299;-45
2024/03/31 00:04:03;;;;;;;47.08;28.15;;;;;;;;;;7341454;19;20435;-44
2024/03/31 00:06:28;;;;;;;48.77;29.30;;;;;;;;;;7319687;19;20999;-44
2024/03/31 00:08:54;;;;;;;50.10;29.17;;;;;;;;;;7342270;19;20297;-47
2024/03/31 00:11:19;;;;;;;44.77;26.13;;;;;;;;;;7319218;19;20441;-45
2024/03/31 00:13:44;;;;;;;43.72;25.80;;;;;;;;;;7342433;19;20296;-44
2024/03/31 00:16:10;;;;;;;39.73;25.50;;;;;;;;;;7333842;19;20358;-45
2024/03/31 00:18:35;;;;;;;41.05;25.88;;;;;;;;;;7345077;19;20309;-46
2024/03/31 00:21:01;;;;;;;40.57;24.53;;;;;;;;;;7348495;19;20367;-44
2024/03/31 00:23:26;;;;;;;37.08;22.83;;;;;;;;;;7324567;19;20316;-47
2024/03/31 00:25:55;;;;;;;36.88;23.38;;;;;;;;;;7348250;19;20320;-44
2024/03/31 00:28:21;;;;;;;36.08;22.65;;;;;;;;;;7326653;19;20329;-46
2024/03/31 00:30:56;;;;;;;36.00;21.70;;;;;;;;;;7348931;19;20762;-47
2024/03/31 00:33:21;;;;;;;39.47;22.15;;;;;;;;;;7326119;19;20334;-45
2024/03/31 00:35:56;;;;;;;37.05;22.80;;;;;;;;;;7348398;19;20356;-46
2024/03/31 00:38:22;;;;;;;39.10;22.90;;;;;;;;;;7326556;19;20415;-49
2024/03/31 00:40:48;;;;;;;38.83;23.65;;;;;;;;;;7348278;19;20859;-43
2024/03/31 00:43:13;;;;;;;38.53;23.85;;;;;;;;;;7325864;19;20313;-44
2024/03/31 00:45:41;;;;;;;41.60;25.03;;;;;;;;;;7347514;19;20836;-46
2024/03/31 00:48:07;;;;;;;42.10;24.95;;;;;;;;;;7348236;19;20327;-45
2024/03/31 00:50:33;;;;;;;45.10;26.00;;;;;;;;;;7325298;19;20293;-43
2024/03/31 00:52:58;;;;;;;43.73;25.63;;;;;;;;;;7348098;19;20325;-47
2024/03/31 00:55:24;;;;;;;42.33;24.77;;;;;;;;;;7326645;19;20438;-45
2024/03/31 00:57:49;;;;;;;40.13;22.93;;;;;;;;;;7348620;19;20297;-46
2024/03/31 01:00:16;;;;;;;37.47;23.40;;;;;;;;;;7324453;19;20770;-47
2024/03/31 01:02:42;;;;;;;37.20;23.60;;;;;;;;;;7346378;19;20328;-44
2024/03/31 01:05:07;;;;;;;38.00;23.83;;;;;;;;;;7347457;19;20366;-48
2024/03/31 01:07:33;;;;;;;36.13;22.20;;;;;;;;;;7324373;19;20311;-49
2024/03/31 01:09:58;;;;;;;36.23;23.17;;;;;;;;;;7347887;19;20659;-48
2024/03/31 01:12:24;;;;;;;32.50;19.73;;;;;;;;;;7324492;19;20336;-46
2024/03/31 01:14:49;;;;;;;32.85;20.58;;;;;;;;;;7347806;19;20309;-46
2024/03/31 01:17:14;;;;;;;29.67;19.13;;;;;;;;;;7325165;19;20317;-47
2024/03/31 01:19:40;;;;;;;29.03;18.27;;;;;;;;;;7347575;19;20710;-48
2024/03/31 01:22:05;;;;;;;28.10;17.70;;;;;;;;;;7347079;19;20329;-48
2024/03/31 01:24:31;;;;;;;25.77;17.17;;;;;;;;;;7323031;19;20339;-45
2024/03/31 01:26:56;;;;;;;25.30;16.73;;;;;;;;;;7347309;19;20955;-45
2024/03/31 01:29:21;;;;;;;27.30;16.37;;;;;;;;;;7325072;19;20313;-44
2024/03/31 01:31:47;;;;;;;26.07;16.23;;;;;;;;;;7346350;19;20384;-46
2024/03/31 01:34:12;;;;;;;29.53;16.53;;;;;;;;;;7323948;19;20337;-46
2024/03/31 01:36:37;;;;;;;24.20;15.70;;;;;;;;;;7347056;19;20305;-44
2024/03/31 01:39:03;;;;;;;26.60;16.23;;;;;;;;;;7347560;19;20750;-45
2024/03/31 01:41:28;;;;;;;27.07;16.57;;;;;;;;;;7319945;19;20433;-47
2024/03/31 01:43:54;;;;;;;29.08;16.52;;;;;;;;;;7346681;19;20692;-44
2024/03/31 01:46:19;;;;;;;27.83;15.97;;;;;;;;;;7324511;19;20533;-48
2024/03/31 01:48:45;;;;;;;34.17;18.13;;;;;;;;;;7346005;19;20848;-45
2024/03/31 01:51:10;;;;;;;30.50;17.63;;;;;;;;;;7332370;19;20420;-44
2024/03/31 01:53:36;;;;;;;30.93;16.50;;;;;;;;;;7339778;19;20828;-47
2024/03/31 01:56:01;;;;;;;29.38;17.40;;;;;;;;;;7346966;19;20606;-44
2024/03/31 01:58:26;;;;;;;32.40;18.27;;;;;;;;;;7323997;19;20339;-46
2024/03/31 02:00:52;;;;;;;33.07;19.00;;;;;;;;;;7346304;19;20310;-46
2024/03/31 02:03:17;;;;;;;35.30;18.87;;;;;;;;;;7323234;19;20324;-45
2024/03/31 02:05:43;;;;;;;31.45;18.80;;;;;;;;;;7346286;19;20308;-45
2024/03/31 02:08:08;;;;;;;29.20;17.47;;;;;;;;;;7346507;19;21063;-45
2024/03/31 02:10:34;;;;;;;32.42;18.90;;;;;;;;;;7324234;19;20301;-44
2024/03/31 02:12:59;;;;;;;39.57;20.00;;;;;;;;;;7345701;19;20683;-44
2024/03/31 02:15:24;;;;;;;37.97;20.17;;;;;;;;;;7323997;19;20328;-46
2024/03/31 02:17:50;;;;;;;32.73;18.90;;;;;;;;;;7346162;19;20697;-44
2024/03/31 02:20:15;;;;;;;33.40;19.60;;;;;;;;;;7322974;19;20431;-44
2024/03/31 02:22:41;;;;;;;33.67;19.15;;;;;;;;;;7345558;19;20317;-44
2024/03/31 02:25:06;;;;;;;38.30;19.13;;;;;;;;;;7343809;19;20403;-44
2024/03/31 02:27:32;;;;;;;35.60;18.95;;;;;;;;;;7323160;19;20432;-43
2024/03/31 02:29:57;;;;;;;37.53;20.67;;;;;;;;;;7345825;19;20373;-44
2024/03/31 02:32:23;;;;;;;36.57;19.80;;;;;;;;;;7321844;19;20332;-43
2024/03/31 02:34:48;;;;;;;37.33;19.60;;;;;;;;;;7345476;19;20840;-44
2024/03/31 02:37:13;;;;;;;42.20;20.43;;;;;;;;;;7321289;19;20959;-43
2024/03/31 02:39:39;;;;;;;36.60;19.50;;;;;;;;;;7344557;19;20301;-43
2024/03/31 02:42:04;;;;;;;34.45;19.15;;;;;;;;;;7344112;19;20996;-46
2024/03/31 02:44:30;;;;;;;37.47;19.70;;;;;;;;;;7323070;19;20286;-44
2024/03/31 02:46:55;;;;;;;41.17;20.67;;;;;;;;;;7346003;19;20315;-44
2024/03/31 02:49:20;;;;;;;40.07;20.80;;;;;;;;;;7322714;19;20349;-44
2024/03/31 02:51:46;;;;;;;42.10;21.47;;;;;;;;;;7344456;19;20300;-43
2024/03/31 02:54:11;;;;;;;41.45;21.67;;;;;;;;;;7321787;19;20367;-44
2024/03/31 02:56:37;;;;;;;43.23;21.60;;;;;;;;;;7344152;19;20315;-44
2024/03/31 02:59:02;;;;;;;46.20;22.43;;;;;;;;;;7344601;19;20333;-44
2024/03/31 03:01:27;;;;;;;49.20;22.20;;;;;;;;;;7321593;19;20325;-44
2024/03/31 03:03:53;;;;;;;45.63;22.47;;;;;;;;;;7345160;19;20323;-44
2024/03/31 03:06:18;;;;;;;45.80;22.67;;;;;;;;;;7322011;19;20868;-44
2024/03/31 03:08:44;;;;;;;46.60;22.50;;;;;;;;;;7344282;19;20305;-44
2024/03/31 03:11:09;;;;;;;44.80;22.50;;;;;;;;;;7341876;19;20327;-43
2024/03/31 03:13:34;;;;;;;46.80;22.47;;;;;;;;;;7327856;19;20352;-45
2024/03/31 03:16:00;;;;;;;47.87;23.53;;;;;;;;;;7346252;19;20891;-45
2024/03/31 03:18:26;;;;;;;40.38;22.02;;;;;;;;;;7321680;19;20390;-44
2024/03/31 03:20:51;;;;;;;42.50;21.75;;;;;;;;;;7344295;19;20852;-43
2024/03/31 03:23:17;;;;;;;44.97;22.23;;;;;;;;;;7318745;19;20862;-43
2024/03/31 03:25:52;;;;;;;46.93;23.50;;;;;;;;;;7343192;19;20407;-44
2024/03/31 03:28:18;;;;;;;44.20;23.17;;;;;;;;;;7320248;19;20774;-44
2024/03/31 03:30:45;;;;;;;46.43;21.77;;;;;;;;;;7343042;19;20297;-44
2024/03/31 03:33:11;;;;;;;51.35;23.25;;;;;;;;;;7323878;19;20329;-44
2024/03/31 03:35:37;;;;;;;45.22;22.63;;;;;;;;;;7343410;19;20384;-44
2024/03/31 03:38:02;;;;;;;44.10;20.63;;;;;;;;;;7343437;19;20389;-45
2024/03/31 03:40:28;;;;;;;42.08;22.30;;;;;;;;;;7318593;19;20341;-44
2024/03/31 03:42:53;;;;;;;39.63;20.47;;;;;;;;;;7342716;19;20372;-46
2024/03/31 03:45:18;;;;;;;33.83;18.13;;;;;;;;;;7320333;19;20396;-44
2024/03/31 03:47:44;;;;;;;35.30;18.90;;;;;;;;;;7342528;19;20321;-44
2024/03/31 03:50:09;;;;;;;40.07;19.67;;;;;;;;;;7347352;19;20440;-42
2024/03/31 03:52:37;;;;;;;36.05;18.85;;;;;;;;;;7332383;19;20293;-44
2024/03/31 03:55:03;;;;;;;36.57;19.67;;;;;;;;;;7350258;19;20325;-43
2024/03/31 03:57:28;;;;;;;33.03;18.80;;;;;;;;;;7327066;19;20891;-44
2024/03/31 03:59:53;;;;;;;33.17;17.27;;;;;;;;;;7350978;19;20300;-45
2024/03/31 04:02:19;;;;;;;30.48;16.65;;;;;;;;;;7325359;19;20331;-44
2024/03/31 04:04:44;;;;;;;30.73;17.43;;;;;;;;;;7349230;19;20383;-43
2024/03/31 04:07:09;;;;;;;32.40;17.30;;;;;;;;;;7342789;19;20338;-42
2024/03/31 04:09:35;;;;;;;29.50;16.37;;;;;;;;;;7336820;19;20395;-44
2024/03/31 04:12:00;;;;;;;28.73;16.23;;;;;;;;;;7349652;19;20400;-44
2024/03/31 04:14:26;;;;;;;29.60;16.50;;;;;;;;;;7326736;19;20380;-45
2024/03/31 04:16:51;;;;;;;32.30;16.60;;;;;;;;;;7349660;19;20361;-45
2024/03/31 04:19:16;;;;;;;32.20;17.20;;;;;;;;;;7326740;19;20312;-44
2024/03/31 04:21:42;;;;;;;36.97;17.87;;;;;;;;;;7348426;19;20317;-44
2024/03/31 04:24:08;;;;;;;31.47;16.90;;;;;;;;;;7347866;19;20865;-44
2024/03/31 04:26:33;;;;;;;32.03;16.90;;;;;;;;;;7326939;19;20301;-45
2024/03/31 04:28:58;;;;;;;27.83;16.17;;;;;;;;;;7349609;19;20324;-43
2024/03/31 04:31:24;;;;;;;31.93;16.40;;;;;;;;;;7325609;19;20747;-46
2024/03/31 04:33:49;;;;;;;30.90;16.48;;;;;;;;;;7348302;19;20321;-44
2024/03/31 04:36:15;;;;;;;33.07;17.57;;;;;;;;;;7326220;19;20880;-44
2024/03/31 04:38:41;;;;;;;33.90;18.20;;;;;;;;;;7347930;19;20744;-46
2024/03/31 04:41:07;;;;;;;30.58;17.52;;;;;;;;;;7348015;19;20320;-47
2024/03/31 04:43:32;;;;;;;30.42;16.83;;;;;;;;;;7325950;19;20658;-47
2024/03/31 04:45:59;;;;;;;33.77;17.20;;;;;;;;;;7349433;19;20864;-46
2024/03/31 04:48:24;;;;;;;29.38;16.88;;;;;;;;;;7325074;19;20321;-45
2024/03/31 04:50:49;;;;;;;38.13;18.83;;;;;;;;;;7347414;19;20310;-44
2024/03/31 04:53:15;;;;;;;33.70;17.93;;;;;;;;;;7324778;19;20361;-46
2024/03/31 04:55:40;;;;;;;30.67;17.43;;;;;;;;;;7347161;19;20295;-44
2024/03/31 04:58:06;;;;;;;36.43;18.40;;;;;;;;;;7348304;19;20332;-45
2024/03/31 05:00:31;;;;;;;29.63;16.42;;;;;;;;;;7323250;19;20296;-43
2024/03/31 05:02:56;;;;;;;31.23;16.63;;;;;;;;;;7348381;19;20300;-46
2024/03/31 05:05:22;;;;;;;29.80;17.77;;;;;;;;;;7325316;19;20324;-46
2024/03/31 05:07:47;;;;;;;29.90;16.30;;;;;;;;;;7347579;19;20845;-45
2024/03/31 05:10:12;;;;;;;35.30;18.07;;;;;;;;;;7324938;19;20353;-47
2024/03/31 05:12:38;;;;;;;28.63;16.07;;;;;;;;;;7346791;19;20300;-44
2024/03/31 05:15:03;;;;;;;26.13;16.23;;;;;;;;;;7348780;19;20342;-47
2024/03/31 05:17:29;;;;;;;26.92;15.00;;;;;;;;;;7326172;19;20750;-49
2024/03/31 05:19:54;;;;;;;23.98;14.23;;;;;;;;;;7348275;19;20300;-45
2024/03/31 05:22:20;;;;;;;24.80;14.47;;;;;;;;;;7323830;19;20407;-45
2024/03/31 05:24:45;;;;;;;36.42;21.40;;;;;;;;;;7345617;19;20293;-44
2024/03/31 05:27:11;;;;;;;37.57;21.90;;;;;;;;;;7329928;19;20342;-45
2024/03/31 05:29:36;;;;;;;24.43;14.63;;;;;;;;;;7347681;19;20748;-44
2024/03/31 05:32:02;;;;;;;36.75;22.25;;;;;;;;;;7347034;19;20357;-42
2024/03/31 05:34:27;;;;;;;23.77;14.47;;;;;;;;;;7324675;19;20321;-44
2024/03/31 05:36:53;;;;;;;22.20;13.90;;;;;;;;;;7347295;19;20293;-46
2024/03/31 05:39:19;;;;;;;20.97;12.97;;;;;;;;;;7324469;19;20343;-43
2024/03/31 05:41:45;;;;;;;20.35;11.80;;;;;;;;;;7345876;19;20305;-45
2024/03/31 05:44:10;;;;;;;15.82;10.80;;;;;;;;;;7337120;19;20411;-43
2024/03/31 05:46:35;;;;;;;27.17;16.00;;;;;;;;;;7339243;19;20299;-45
2024/03/31 05:49:01;;;;;;;27.20;16.57;;;;;;;;;;7345860;19;20718;-45
2024/03/31 05:51:26;;;;;;;53.97;31.73;;;;;;;;;;7317857;19;20392;-44
2024/03/31 05:53:52;;;;;;;38.63;23.13;;;;;;;;;;7345535;19;20325;-43
2024/03/31 05:56:17;;;;;;;38.10;23.20;;;;;;;;;;7324084;19;20756;-44
2024/03/31 05:58:42;;;;;;;25.50;15.07;;;;;;;;;;7345447;19;20379;-43
2024/03/31 06:01:08;;;;;;;16.37;11.00;;;;;;;;;;7345351;19;20332;-43
2024/03/31 06:03:33;;;;;;;21.63;12.10;;;;;;;;;;7344527;19;20300;-46
2024/03/31 06:05:58;;;;;;;21.83;13.48;;;;;;;;;;7345445;19;20289;-44
2024/03/31 06:08:24;;;;;;;43.77;23.40;;;;;;;;;;7345398;19;20332;-44
2024/03/31 06:10:49;;;;;;;31.23;17.17;;;;;;;;;;7319120;19;20361;-47
2024/03/31 06:13:15;;;;;;;37.60;19.43;;;;;;;;;;7342721;19;20312;-44
2024/03/31 06:15:40;;;;;;;35.22;18.77;;;;;;;;;;7331468;19;20340;-44
2024/03/31 06:18:05;;;;;;;42.60;23.77;;;;;;;;;;7337821;19;20296;-46
2024/03/31 06:20:31;;;;;;;33.00;17.80;;;;;;;;;;7342847;19;20400;-46
2024/03/31 06:22:56;;;;;;;23.37;14.67;;;;;;;;;;7322344;19;20675;-44
2024/03/31 06:25:22;;;;;;;22.83;13.97;;;;;;;;;;7342840;19;20304;-44
2024/03/31 06:27:47;;;;;;;21.83;13.75;;;;;;;;;;7320624;19;20332;-47
2024/03/31 06:30:12;;;;;;;24.30;14.50;;;;;;;;;;7342502;19;20862;-44
2024/03/31 06:32:38;;;;;;;27.80;15.43;;;;;;;;;;7342825;19;20309;-45
2024/03/31 06:35:04;;;;;;;23.50;14.40;;;;;;;;;;7320349;19;20856;-44
2024/03/31 06:37:29;;;;;;;22.00;13.10;;;;;;;;;;7343081;19;20321;-42
2024/03/31 06:39:54;;;;;;;23.20;13.60;;;;;;;;;;7320215;19;20435;-43
2024/03/31 06:42:20;;;;;;;18.60;12.60;;;;;;;;;;7342944;19;20332;-44
2024/03/31 06:44:45;;;;;;;21.03;11.83;;;;;;;;;;7320169;19;20412;-46
2024/03/31 06:47:11;;;;;;;19.20;12.07;;;;;;;;;;7342977;19;20321;-45
2024/03/31 06:49:36;;;;;;;18.07;12.10;;;;;;;;;;7341187;19;20317;-44
2024/03/31 06:52:02;;;;;;;19.92;12.57;;;;;;;;;;7321411;19;20333;-42
2024/03/31 06:54:27;;;;;;;19.63;12.40;;;;;;;;;;7342125;19;20328;-45
2024/03/31 06:56:53;;;;;;;18.03;12.03;;;;;;;;;;7321079;19;20333;-45
2024/03/31 06:59:18;;;;;;;18.70;12.00;;;;;;;;;;7342355;19;20324;-43
2024/03/31 07:01:44;;;;;;;16.85;11.20;;;;;;;;;;7317960;19;20399;-43
2024/03/31 07:04:09;;;;;;;17.50;11.70;;;;;;;;;;7340358;19;20293;-43
2024/03/31 07:06:35;;;;;;;21.80;12.40;;;;;;;;;;7342060;19;20321;-43
2024/03/31 07:09:00;;;;;;;19.17;11.53;;;;;;;;;;7320169;19;20408;-43
2024/03/31 07:11:25;;;;;;;16.60;10.90;;;;;;;;;;7341236;19;20340;-43
2024/03/31 07:13:51;;;;;;;16.77;11.23;;;;;;;;;;7318794;19;20329;-44
2024/03/31 07:16:16;;;;;;;18.97;12.10;;;;;;;;;;7342706;19;20328;-47
2024/03/31 07:18:42;;;;;;;15.90;10.90;;;;;;;;;;7318310;19;20324;-48
2024/03/31 07:21:07;;;;;;;22.80;12.57;;;;;;;;;;7340722;19;20321;-44
2024/03/31 07:23:33;;;;;;;17.17;11.23;;;;;;;;;;7337672;19;20687;-43
2024/03/31 07:26:00;;;;;;;20.58;12.65;;;;;;;;;;7320487;19;20385;-46
2024/03/31 07:28:26;;;;;;;19.38;11.55;;;;;;;;;;7342356;19;20320;-42
2024/03/31 07:30:51;;;;;;;18.50;11.40;;;;;;;;;;7317627;19;20329;-47
2024/03/31 07:33:17;;;;;;;20.95;12.80;;;;;;;;;;7341800;19;20328;-44
2024/03/31 07:35:42;;;;;;;29.60;15.80;;;;;;;;;;7319141;19;20320;-43
2024/03/31 07:38:08;;;;;;;17.87;10.60;;;;;;;;;;7340358;19;20755;-45
2024/03/31 07:40:33;;;;;;;20.50;12.20;;;;;;;;;;7341875;19;20332;-43
2024/03/31 07:42:58;;;;;;;25.40;14.10;;;;;;;;;;7318386;19;20794;-43
2024/03/31 07:45:24;;;;;;;18.48;11.45;;;;;;;;;;7341011;19;20335;-43
2024/03/31 07:47:49;;;;;;;20.50;12.63;;;;;;;;;;7318010;19;20783;-43
2024/03/31 07:50:16;;;;;;;22.60;13.18;;;;;;;;;;7339497;19;20359;-41
2024/03/31 07:52:42;;;;;;;20.63;12.65;;;;;;;;;;7317368;19;20317;-44
2024/03/31 07:55:08;;;;;;;24.45;13.27;;;;;;;;;;7341682;19;20328;-44
2024/03/31 07:57:33;;;;;;;22.08;13.68;;;;;;;;;;7342274;19;20336;-44
2024/03/31 07:59:58;;;;;;;23.73;13.17;;;;;;;;;;7319067;19;21714;-42
2024/03/31 08:02:24;;;;;;;24.17;14.57;;;;;;;;;;7340531;19;20352;-42
2024/03/31 08:04:49;;;;;;;31.40;17.13;;;;;;;;;;7316190;19;20328;-44
2024/03/31 08:07:15;;;;;;;22.57;14.00;;;;;;;;;;7339879;19;20427;-43
2024/03/31 08:09:40;;;;;;;23.87;13.93;;;;;;;;;;7334532;19;20416;-40
2024/03/31 08:12:05;;;;;;;34.60;18.00;;;;;;;;;;7327290;19;20356;-43
2024/03/31 08:14:31;;;;;;;21.67;13.32;;;;;;;;;;7340251;19;20943;-43
2024/03/31 08:16:56;;;;;;;20.20;13.10;;;;;;;;;;7317598;19;20421;-42
2024/03/31 08:19:22;;;;;;;23.00;14.13;;;;;;;;;;7340405;19;20317;-43
2024/03/31 08:21:47;;;;;;;22.13;13.30;;;;;;;;;;7315650;19;20399;-42
2024/03/31 08:24:12;;;;;;;23.67;14.20;;;;;;;;;;7338240;19;20324;-44
2024/03/31 08:26:38;;;;;;;25.80;14.10;;;;;;;;;;7343399;19;20407;-42
2024/03/31 08:29:03;;;;;;;26.10;14.50;;;;;;;;;;7318892;19;21290;-43
2024/03/31 08:31:28;;;;;;;26.13;15.50;;;;;;;;;;7338115;19;20325;-43
2024/03/31 08:33:54;;;;;;;26.43;14.70;;;;;;;;;;7317583;19;20339;-43
2024/03/31 08:36:19;;;;;;;22.50;14.00;;;;;;;;;;7346677;19;20333;-42
2024/03/31 08:38:45;;;;;;;26.03;15.20;;;;;;;;;;7323542;19;20324;-49
2024/03/31 08:41:14;;;;;;;29.43;16.00;;;;;;;;;;7345058;19;20317;-43
2024/03/31 08:43:40;;;;;;;36.53;18.85;;;;;;;;;;7345327;19;20852;-46
2024/03/31 08:46:06;;;;;;;26.17;14.88;;;;;;;;;;7327537;19;20324;-42
2024/03/31 08:48:31;;;;;;;26.80;16.05;;;;;;;;;;7326255;19;20316;-43
2024/03/31 08:50:57;;;;;;;26.10;14.80;;;;;;;;;;7344316;19;20391;-43
2024/03/31 08:53:23;;;;;;;32.20;17.38;;;;;;;;;;7320362;19;20417;-43
2024/03/31 08:55:49;;;;;;;24.27;14.35;;;;;;;;;;7343293;19;20321;-45
2024/03/31 08:58:14;;;;;;;25.70;14.70;;;;;;;;;;7332046;19;20329;-44
2024/03/31 09:00:41;;;;;;;27.30;15.00;;;;;;;;;;7338130;19;20305;-43
2024/03/31 09:03:07;;;;;;;26.23;15.35;;;;;;;;;;7348127;19;20328;-43
2024/03/31 09:05:32;;;;;;;25.30;14.20;;;;;;;;;;7325791;19;20689;-43
2024/03/31 09:07:58;;;;;;;25.70;14.60;;;;;;;;;;7346898;19;20358;-45
2024/03/31 09:10:24;;;;;;;26.30;15.55;;;;;;;;;;7325115;19;20340;-42
2024/03/31 09:12:49;;;;;;;27.17;15.88;;;;;;;;;;7347107;19;20297;-42
2024/03/31 09:15:15;;;;;;;30.95;16.92;;;;;;;;;;7334131;19;20923;-41
2024/03/31 09:17:41;;;;;;;31.15;16.67;;;;;;;;;;7346613;19;20321;-43
2024/03/31 09:20:06;;;;;;;28.03;16.40;;;;;;;;;;7348381;19;20324;-42
2024/03/31 09:22:32;;;;;;;24.88;14.90;;;;;;;;;;7324097;19;20321;-41
2024/03/31 09:24:58;;;;;;;28.13;16.13;;;;;;;;;;7346100;19;20376;-44
2024/03/31 09:27:24;;;;;;;30.08;16.38;;;;;;;;;;7324689;19;20870;-43
2024/03/31 09:29:50;;;;;;;31.20;16.77;;;;;;;;;;7347558;19;20293;-42
2024/03/31 09:32:16;;;;;;;31.83;17.77;;;;;;;;;;7327225;19;20342;-45
2024/03/31 09:34:46;;;;;;;29.77;17.25;;;;;;;;;;7346852;19;20356;-44
2024/03/31 09:37:11;;;;;;;31.65;18.00;;;;;;;;;;7345692;19;20317;-43
2024/03/31 09:39:37;;;;;;;28.80;16.83;;;;;;;;;;7323407;19;20308;-42
2024/03/31 09:42:04;;;;;;;33.97;18.40;;;;;;;;;;7344393;19;20313;-43
2024/03/31 09:44:29;;;;;;;30.88;17.20;;;;;;;;;;7323718;19;20329;-44
2024/03/31 09:46:55;;;;;;;30.75;17.20;;;;;;;;;;7342690;19;20305;-43
2024/03/31 09:49:23;;;;;;;32.43;17.63;;;;;;;;;;7321810;19;20301;-43
2024/03/31 09:51:49;;;;;;;28.30;16.73;;;;;;;;;;7342855;19;20296;-42
2024/03/31 09:54:21;;;;;;;30.53;16.67;;;;;;;;;;7340211;19;20304;-41
2024/03/31 09:57:00;;;;;;;29.50;16.88;;;;;;;;;;7344703;19;20382;-43
2024/03/31 09:59:26;;;;;;;30.90;16.90;;;;;;;;;;7324019;19;20329;-43
2024/03/31 10:01:53;;;;;;;27.57;16.17;;;;;;;;;;7342062;19;20324;-43
2024/03/31 10:04:25;;;;;;;27.83;16.02;;;;;;;;;;7322177;19;20658;-44
2024/03/31 10:06:52;;;;;;;26.88;13.77;;;;;;;;;;7344955;19;20296;-43
2024/03/31 10:09:18;;;;;;;25.88;15.38;;;;;;;;;;7321014;19;20884;-42
2024/03/31 10:11:44;;;;;;;25.73;15.00;;;;;;;;;;7341308;19;20336;-44
2024/03/31 10:14:09;;;;;;;24.88;14.65;;;;;;;;;;7347479;19;20333;-42
2024/03/31 10:16:35;;;;;;;25.90;15.02;;;;;;;;;;7324484;19;20299;-45
2024/03/31 10:19:01;;;;;;;25.00;13.60;;;;;;;;;;7345062;19;20301;-42
2024/03/31 10:21:26;;;;;;;24.50;14.40;;;;;;;;;;7322334;19;20856;-44
2024/03/31 10:23:52;;;;;;;24.67;14.33;;;;;;;;;;7342322;19;20316;-44
2024/03/31 10:26:18;;;;;;;28.25;16.15;;;;;;;;;;7322111;19;20388;-42
2024/03/31 10:28:45;;;;;;;26.60;15.67;;;;;;;;;;7344316;19;20373;-43
2024/03/31 10:31:11;;;;;;;25.57;14.30;;;;;;;;;;7343441;19;20371;-43
2024/03/31 10:33:37;;;;;;;22.93;14.20;;;;;;;;;;7321195;19;20848;-42
2024/03/31 10:36:03;;;;;;;27.77;15.50;;;;;;;;;;7343640;19;20765;-43
2024/03/31 10:38:29;;;;;;;24.40;14.88;;;;;;;;;;7319069;19;20419;-43
2024/03/31 10:40:54;;;;;;;25.60;13.77;;;;;;;;;;7338489;19;20722;-44
2024/03/31 10:43:20;;;;;;;22.27;13.87;;;;;;;;;;7322599;19;20317;-48
2024/03/31 10:45:46;;;;;;;22.90;14.17;;;;;;;;;;7342177;19;20304;-43
2024/03/31 10:48:11;;;;;;;22.17;14.17;;;;;;;;;;7343304;19;20343;-44
2024/03/31 10:50:42;;;;;;;23.47;14.73;;;;;;;;;;7321751;19;20308;-43
2024/03/31 10:53:09;;;;;;;25.20;15.20;;;;;;;;;;7344208;19;20356;-43
2024/03/31 10:55:34;;;;;;;25.40;14.90;;;;;;;;;;7322737;19;20324;-43
2024/03/31 10:58:00;;;;;;;23.85;14.15;;;;;;;;;;7341719;19;20340;-47
2024/03/31 11:00:25;;;;;;;23.75;14.43;;;;;;;;;;7319379;19;20903;-43
2024/03/31 11:02:51;;;;;;;24.20;14.73;;;;;;;;;;7343014;19;20332;-42
2024/03/31 11:05:20;;;;;;;23.92;14.00;;;;;;;;;;7324486;19;20301;-42
2024/03/31 11:07:47;;;;;;;23.80;14.50;;;;;;;;;;7342097;19;20324;-44
2024/03/31 11:10:13;;;;;;;24.60;14.80;;;;;;;;;;7342637;19;20385;-43
2024/03/31 11:12:43;;;;;;;23.10;14.18;;;;;;;;;;7319808;19;20300;-43
2024/03/31 11:15:09;;;;;;;22.67;12.97;;;;;;;;;;7342534;19;20305;-43
2024/03/31 11:17:35;;;;;;;21.30;13.73;;;;;;;;;;7319884;19;20308;-42
2024/03/31 11:20:01;;;;;;;23.42;14.55;;;;;;;;;;7342253;19;20292;-43
2024/03/31 11:22:26;;;;;;;23.50;14.13;;;;;;;;;;7318802;19;20303;-45
2024/03/31 11:24:52;;;;;;;21.97;14.10;;;;;;;;;;7342831;19;20317;-45
2024/03/31 11:27:18;;;;;;;20.17;12.97;;;;;;;;;;7323177;19;20325;-46
2024/03/31 11:29:44;;;;;;;22.03;14.10;;;;;;;;;;7344701;19;20324;-43
2024/03/31 11:32:10;;;;;;;18.87;11.93;;;;;;;;;;7345508;19;20428;-43
2024/03/31 11:34:36;;;;;;;18.77;11.60;;;;;;;;;;7324212;19;20944;-44
2024/03/31 11:37:02;;;;;;;20.27;13.43;;;;;;;;;;7341896;19;20376;-45
2024/03/31 11:39:27;;;;;;;20.33;13.35;;;;;;;;;;7319435;19;20301;-43
2024/03/31 11:41:53;;;;;;;20.30;13.67;;;;;;;;;;7340896;19;20304;-42
2024/03/31 11:44:18;;;;;;;17.30;11.80;;;;;;;;;;7318034;19;20301;-46
2024/03/31 11:46:47;;;;;;;17.70;11.00;;;;;;;;;;7338272;19;20296;-44
2024/03/31 11:49:14;;;;;;;16.45;11.02;;;;;;;;;;7340351;19;20299;-43
2024/03/31 11:51:39;;;;;;;16.75;10.95;;;;;;;;;;7318386;19;20297;-44
2024/03/31 11:54:05;;;;;;;17.40;11.60;;;;;;;;;;7340317;19;20721;-42
2024/03/31 11:56:30;;;;;;;17.00;10.50;;;;;;;;;;7312856;19;20849;-41
2024/03/31 11:58:56;;;;;;;16.40;10.73;;;;;;;;;;7342133;19;20293;-41
2024/03/31 12:01:24;;;;;;;17.03;11.10;;;;;;;;;;7320112;19;20324;-42
2024/03/31 12:03:55;;;;;;;44.20;27.75;;;;;;;;;;7341513;19;20344;-46
2024/03/31 12:06:21;;;;;;;16.98;11.57;;;;;;;;;;7318102;19;20852;-40
2024/03/31 12:08:47;;;;;;;18.08;12.25;;;;;;;;;;7341528;19;20311;-39
2024/03/31 12:11:13;;;;;;;18.55;12.35;;;;;;;;;;7348189;19;20321;-41
2024/03/31 12:13:38;;;;;;;18.40;11.67;;;;;;;;;;7327115;19;20301;-41
2024/03/31 12:16:04;;;;;;;18.37;11.97;;;;;;;;;;7348477;19;20912;-46
2024/03/31 12:18:29;;;;;;;19.50;13.27;;;;;;;;;;7326915;19;20341;-40
2024/03/31 12:20:54;;;;;;;19.20;12.77;;;;;;;;;;7349471;19;20651;-42
2024/03/31 12:23:20;;;;;;;21.63;13.33;;;;;;;;;;7325786;19;20320;-46
2024/03/31 12:25:46;;;;;;;22.00;13.20;;;;;;;;;;7347994;19;20315;-41
2024/03/31 12:28:12;;;;;;;18.58;12.75;;;;;;;;;;7348043;19;20888;-42
2024/03/31 12:30:39;;;;;;;20.00;13.00;;;;;;;;;;7327518;19;20282;-43
2024/03/31 12:33:05;;;;;;;18.13;11.50;;;;;;;;;;7349006;19;20340;-41
2024/03/31 12:35:30;;;;;;;18.30;12.40;;;;;;;;;;7326218;19;20337;-41
2024/03/31 12:37:56;;;;;;;16.30;11.43;;;;;;;;;;7348819;19;20305;-44
2024/03/31 12:40:21;;;;;;;16.70;11.10;;;;;;;;;;7322681;19;20370;-42
2024/03/31 12:42:48;;;;;;;17.60;12.20;;;;;;;;;;7348124;19;20289;-42
2024/03/31 12:45:19;;;;;;;17.15;11.00;;;;;;;;;;7348024;19;20316;-41
2024/03/31 12:47:45;;;;;;;15.32;10.80;;;;;;;;;;7326669;19;20687;-42
2024/03/31 12:50:12;;;;;;;16.70;10.60;;;;;;;;;;7348589;19;20321;-44
2024/03/31 12:52:37;;;;;;;15.48;10.73;;;;;;;;;;7325979;19;20289;-44
2024/03/31 12:55:12;;;;;;;17.93;12.07;;;;;;;;;;7346604;19;20308;-43
2024/03/31 12:57:38;;;;;;;16.45;11.07;;;;;;;;;;7323266;19;20301;-41
2024/03/31 13:00:05;;;;;;;15.40;10.70;;;;;;;;;;7347258;19;20425;-41
2024/03/31 13:02:30;;;;;;;17.80;11.47;;;;;;;;;;7324587;19;20912;-41
2024/03/31 13:04:56;;;;;;;16.70;10.70;;;;;;;;;;7345419;19;20313;-40
2024/03/31 13:07:21;;;;;;;16.70;10.57;;;;;;;;;;7325798;19;20313;-42
2024/03/31 13:09:46;;;;;;;38.30;26.80;;;;;;;;;;7346672;19;20933;-42
2024/03/31 13:12:12;;;;;;;35.47;23.23;;;;;;;;;;7346396;19;20324;-43
2024/03/31 13:14:38;;;;;;;21.08;14.90;;;;;;;;;;7325863;19;20411;-44
2024/03/31 13:17:04;;;;;;;40.20;27.67;;;;;;;;;;7347113;19;20690;-43
2024/03/31 13:19:29;;;;;;;16.87;11.87;;;;;;;;;;7325323;19;20348;-44
2024/03/31 13:21:54;;;;;;;28.00;19.10;;;;;;;;;;7345363;19;20301;-46
2024/03/31 13:24:20;;;;;;;21.27;13.57;;;;;;;;;;7323473;19;20940;-44
2024/03/31 13:26:46;;;;;;;15.35;10.57;;;;;;;;;;7346236;19;20292;-41
2024/03/31 13:29:11;;;;;;;26.63;15.47;;;;;;;;;;7345736;19;20329;-46
2024/03/31 13:31:37;;;;;;;15.10;10.37;;;;;;;;;;7324201;19;20883;-41
2024/03/31 13:34:02;;;;;;;14.90;9.90;;;;;;;;;;7346930;19;20297;-43
2024/03/31 13:36:28;;;;;;;15.47;10.23;;;;;;;;;;7324750;19;20313;-41
2024/03/31 13:38:53;;;;;;;15.30;10.20;;;;;;;;;;7346768;19;20297;-48
2024/03/31 13:41:19;;;;;;;14.10;9.82;;;;;;;;;;7322969;19;20404;-40
2024/03/31 13:43:44;;;;;;;17.33;11.73;;;;;;;;;;7345240;19;20320;-47
2024/03/31 13:46:09;;;;;;;16.70;11.40;;;;;;;;;;7342080;19;20320;-44
2024/03/31 13:48:35;;;;;;;15.75;10.65;;;;;;;;;;7323666;19;20332;-41
2024/03/31 13:51:00;;;;;;;15.33;10.73;;;;;;;;;;7347361;19;21013;-44
2024/03/31 13:53:26;;;;;;;15.37;11.10;;;;;;;;;;7323277;19;20337;-43
2024/03/31 13:55:51;;;;;;;15.07;10.60;;;;;;;;;;7344873;19;20292;-47
2024/03/31 13:58:17;;;;;;;14.50;9.55;;;;;;;;;;7340013;19;20387;-39
2024/03/31 14:00:42;;;;;;;12.47;8.23;;;;;;;;;;7336909;19;20717;-45
2024/03/31 14:03:07;;;;;;;13.80;8.93;;;;;;;;;;7345733;19;20321;-48
2024/03/31 14:05:33;;;;;;;13.18;8.95;;;;;;;;;;7319583;19;20336;-44
2024/03/31 14:07:58;;;;;;;13.17;8.77;;;;;;;;;;7344588;19;20685;-48